createdAt,value
2023-03-03T00:00:38.882Z,3.10
2023-03-03T00:03:14.081Z,2.89
2023-03-03T00:05:45.574Z,3.12
2023-03-03T00:08:18.816Z,3.02
2023-03-03T00:10:50.336Z,3.17
2023-03-03T00:13:24.443Z,3.21
2023-03-03T00:16:12.654Z,3.29
2023-03-03T00:18:46.958Z,3.33
2023-03-03T00:21:25.957Z,3.31
2023-03-03T00:24:37.990Z,3.33
2023-03-03T00:27:27.372Z,3.28
2023-03-03T00:30:00.813Z,3.18
2023-03-03T00:32:44.062Z,3.17
2023-03-03T00:35:30.084Z,3.16
2023-03-03T00:38:10.928Z,3.07
2023-03-03T00:40:42.620Z,3.12
2023-03-03T00:43:25.726Z,3.09
2023-03-03T00:45:57.536Z,3.07
2023-03-03T00:48:38.050Z,3.10
2023-03-03T00:51:31.663Z,3.05
2023-03-03T00:54:03.060Z,2.89
2023-03-03T00:56:34.315Z,3.04
2023-03-03T00:59:05.605Z,3.07
2023-03-03T01:01:36.930Z,3.11
2023-03-03T01:04:08.321Z,3.13
2023-03-03T01:06:39.665Z,3.01
2023-03-03T01:09:10.932Z,3.04
2023-03-03T01:11:42.500Z,3.04
2023-03-03T01:14:14.100Z,3.15
2023-03-03T01:16:45.397Z,3.04
2023-03-03T01:19:16.916Z,3.02
2023-03-03T01:21:48.254Z,2.92
2023-03-03T01:24:19.693Z,3.02
2023-03-03T01:26:51.031Z,2.91
2023-03-03T01:29:22.347Z,3.08
2023-03-03T01:31:54.693Z,3.07
2023-03-03T01:34:26.082Z,3.06
2023-03-03T01:36:57.380Z,2.97
2023-03-03T01:39:28.665Z,2.70
2023-03-03T01:42:00.111Z,2.96
2023-03-03T01:44:31.386Z,3.03
2023-03-03T01:47:17.422Z,2.95
2023-03-03T01:49:58.404Z,3.05
2023-03-03T01:52:46.900Z,3.15
2023-03-03T01:55:25.439Z,3.11
2023-03-03T01:58:01.767Z,3.10
2023-03-03T02:00:35.991Z,3.10
2023-03-03T02:03:07.679Z,3.09
2023-03-03T02:05:41.989Z,3.01
2023-03-03T02:08:17.630Z,2.99
2023-03-03T02:10:48.983Z,2.87
2023-03-03T02:13:20.370Z,2.99
2023-03-03T02:15:51.799Z,2.99
2023-03-03T02:18:23.194Z,2.91
2023-03-03T02:21:07.821Z,3.03
2023-03-03T02:23:57.438Z,3.06
2023-03-03T02:26:31.798Z,3.08
2023-03-03T02:29:03.924Z,3.04
2023-03-03T02:31:35.581Z,3.13
2023-03-03T02:34:06.951Z,3.02
2023-03-03T02:36:39.550Z,3.16
2023-03-03T02:39:19.106Z,3.14
2023-03-03T02:42:28.819Z,3.09
2023-03-03T02:45:00.204Z,2.89
2023-03-03T02:47:31.460Z,2.74
2023-03-03T02:50:02.772Z,3.00
2023-03-03T02:52:34.030Z,3.04
2023-03-03T02:55:05.936Z,2.99
2023-03-03T02:57:37.180Z,2.94
2023-03-03T03:00:09.131Z,2.98
2023-03-03T03:02:40.399Z,3.02
2023-03-03T03:05:11.772Z,3.00
2023-03-03T03:07:43.021Z,2.91
2023-03-03T03:10:14.647Z,2.88
2023-03-03T03:12:45.932Z,2.82
2023-03-03T03:15:17.196Z,2.82
2023-03-03T03:17:48.451Z,2.77
2023-03-03T03:20:19.743Z,2.62
2023-03-03T03:22:51.038Z,2.66
2023-03-03T03:25:22.327Z,2.52
2023-03-03T03:27:53.603Z,2.60
2023-03-03T03:30:24.949Z,2.58
2023-03-03T03:32:56.203Z,2.84
2023-03-03T03:35:28.389Z,2.86
2023-03-03T03:37:59.687Z,2.68
2023-03-03T03:40:31.049Z,2.68
2023-03-03T03:43:02.312Z,2.58
2023-03-03T03:45:33.870Z,2.53
2023-03-03T03:48:05.363Z,2.45
2023-03-03T03:50:36.977Z,2.46
2023-03-03T03:53:09.357Z,2.41
2023-03-03T03:55:40.716Z,2.33
2023-03-03T03:58:14.427Z,2.38
2023-03-03T04:00:46.678Z,2.29
2023-03-03T04:03:18.212Z,2.40
2023-03-03T04:05:52.628Z,2.39
2023-03-03T04:08:23.949Z,2.27
2023-03-03T04:10:55.219Z,2.35
2023-03-03T04:13:28.859Z,2.33
2023-03-03T04:16:01.048Z,2.35
2023-03-03T04:18:32.459Z,2.37
2023-03-03T04:21:04.556Z,2.41
2023-03-03T04:23:35.813Z,2.45
2023-03-03T04:26:08.243Z,2.32
2023-03-03T04:28:39.556Z,2.33
2023-03-03T04:31:11.117Z,2.32
2023-03-03T04:33:42.422Z,2.32
2023-03-03T04:36:13.713Z,2.36
2023-03-03T04:38:45.169Z,2.33
2023-03-03T04:41:16.898Z,2.45
2023-03-03T04:43:48.169Z,2.39
2023-03-03T04:46:19.747Z,2.22
2023-03-03T04:48:51.319Z,2.23
2023-03-03T04:51:23.095Z,2.08
2023-03-03T04:53:54.408Z,2.13
2023-03-03T04:56:25.684Z,2.11
2023-03-03T04:58:57.516Z,2.11
2023-03-03T05:01:28.843Z,2.02
2023-03-03T05:04:00.127Z,1.99
2023-03-03T05:06:31.392Z,2.05
2023-03-03T05:09:02.762Z,2.16
2023-03-03T05:11:34.028Z,2.15
2023-03-03T05:14:05.298Z,2.10
2023-03-03T05:16:36.663Z,2.12
2023-03-03T05:19:08.009Z,2.03
2023-03-03T05:21:42.689Z,2.18
2023-03-03T05:24:14.527Z,2.21
2023-03-03T05:26:46.010Z,2.09
2023-03-03T05:29:17.377Z,2.08
2023-03-03T05:31:48.719Z,1.96
2023-03-03T05:34:20.092Z,2.13
2023-03-03T05:36:51.668Z,2.13
2023-03-03T05:39:23.394Z,1.88
2023-03-03T05:41:55.865Z,2.13
2023-03-03T05:44:27.946Z,2.05
2023-03-03T05:46:59.498Z,1.92
2023-03-03T05:49:30.821Z,1.80
2023-03-03T05:52:02.253Z,1.88
2023-03-03T05:54:33.645Z,1.86
2023-03-03T05:57:04.914Z,2.01
2023-03-03T05:59:36.195Z,2.09
2023-03-03T06:02:07.709Z,2.12
2023-03-03T06:04:39.865Z,2.13
2023-03-03T06:07:11.139Z,2.20
2023-03-03T06:09:42.539Z,2.08
2023-03-03T06:12:14.110Z,2.00
2023-03-03T06:14:45.472Z,1.92
2023-03-03T06:17:16.985Z,1.84
2023-03-03T06:19:48.475Z,1.79
2023-03-03T06:22:19.791Z,1.98
2023-03-03T06:24:52.524Z,2.06
2023-03-03T06:27:23.924Z,2.07
2023-03-03T06:29:55.288Z,2.13
2023-03-03T06:32:26.810Z,2.07
2023-03-03T06:34:58.247Z,1.99
2023-03-03T06:37:29.643Z,2.07
2023-03-03T06:40:00.915Z,1.93
2023-03-03T06:42:32.251Z,1.95
2023-03-03T06:45:03.984Z,1.72
2023-03-03T06:47:35.389Z,1.91
2023-03-03T06:50:07.515Z,1.89
2023-03-03T06:52:38.983Z,1.98
2023-03-03T06:55:13.727Z,1.96
2023-03-03T06:57:45.047Z,1.90
2023-03-03T07:00:24.475Z,1.91
2023-03-03T07:03:08.211Z,1.83
2023-03-03T07:05:39.758Z,1.83
2023-03-03T07:08:17.022Z,1.83
2023-03-03T07:10:49.553Z,1.73
2023-03-03T07:13:26.799Z,1.86
2023-03-03T07:16:02.226Z,1.93
2023-03-03T07:18:51.075Z,1.99
2023-03-03T07:21:33.061Z,2.01
2023-03-03T07:24:27.567Z,2.04
2023-03-03T07:27:19.192Z,1.95
2023-03-03T07:29:52.566Z,1.89
2023-03-03T07:32:34.959Z,1.93
2023-03-03T07:35:26.879Z,1.99
2023-03-03T07:37:59.289Z,1.93
2023-03-03T07:40:33.743Z,2.04
2023-03-03T07:43:29.283Z,2.20
2023-03-03T07:46:09.768Z,2.28
2023-03-03T07:48:42.750Z,2.37
2023-03-03T07:51:28.924Z,2.42
2023-03-03T07:54:35.746Z,2.52
2023-03-03T07:57:10.092Z,2.54
2023-03-03T07:59:53.290Z,2.54
2023-03-03T08:02:33.400Z,2.58
2023-03-03T08:05:30.871Z,2.69
2023-03-03T08:08:16.248Z,2.68
2023-03-03T08:10:53.062Z,2.53
2023-03-03T08:13:29.040Z,2.87
2023-03-03T08:16:09.658Z,3.10
2023-03-03T08:18:47.680Z,3.10
2023-03-03T08:21:20.682Z,3.04
2023-03-03T08:23:53.508Z,3.04
2023-03-03T08:26:25.649Z,3.03
2023-03-03T08:28:57.218Z,3.05
2023-03-03T08:31:40.845Z,3.27
2023-03-03T08:34:13.160Z,3.57
2023-03-03T08:36:44.576Z,3.73
2023-03-03T08:39:16.062Z,3.84
2023-03-03T08:41:47.799Z,3.90
2023-03-03T08:44:20.488Z,3.89
2023-03-03T08:46:51.898Z,4.09
2023-03-03T08:49:23.213Z,4.17
2023-03-03T08:51:55.460Z,4.20
2023-03-03T08:54:26.844Z,4.32
2023-03-03T08:56:58.123Z,4.12
2023-03-03T08:59:29.404Z,4.30
2023-03-03T09:02:00.887Z,4.50
2023-03-03T09:04:32.288Z,4.77
2023-03-03T09:07:03.661Z,4.84
2023-03-03T09:09:37.250Z,4.79
2023-03-03T09:12:33.966Z,4.78
2023-03-03T09:15:43.189Z,4.82
2023-03-03T09:18:18.693Z,4.91
2023-03-03T09:20:54.824Z,5.01
2023-03-03T09:24:11.269Z,5.06
2023-03-03T09:26:48.608Z,5.00
2023-03-03T09:29:26.095Z,4.98
2023-03-03T09:31:58.669Z,5.05
2023-03-03T09:34:35.954Z,5.13
2023-03-03T09:37:26.390Z,5.39
2023-03-03T09:39:58.353Z,5.58
2023-03-03T09:42:42.921Z,5.85
2023-03-03T09:45:26.749Z,5.99
2023-03-03T09:48:14.646Z,6.03
2023-03-03T09:51:12.837Z,6.09
2023-03-03T09:54:03.066Z,6.28
2023-03-03T09:56:42.560Z,6.54
2023-03-03T09:59:32.511Z,6.74
2023-03-03T10:02:31.432Z,6.78
2023-03-03T10:05:32.927Z,6.84
2023-03-03T10:08:27.086Z,6.95
2023-03-03T10:11:46.368Z,7.20
2023-03-03T10:14:29.784Z,7.31
2023-03-03T10:17:09.617Z,7.24
2023-03-03T10:20:09.533Z,7.16
2023-03-03T10:22:49.826Z,7.10
2023-03-03T10:25:53.476Z,7.08
2023-03-03T10:28:54.539Z,7.13
2023-03-03T10:31:46.846Z,7.02
2023-03-03T10:34:37.397Z,7.10
2023-03-03T10:37:47.601Z,7.35
2023-03-03T10:40:45.379Z,7.24
2023-03-03T10:43:35.308Z,6.93
2023-03-03T10:46:38.888Z,6.85
2023-03-03T10:49:34.693Z,6.73
2023-03-03T10:52:22.378Z,6.76
2023-03-03T10:55:24.386Z,6.96
2023-03-03T10:58:05.003Z,7.11
2023-03-03T11:00:45.302Z,6.96
2023-03-03T11:03:38.159Z,6.74
2023-03-03T11:06:25.312Z,6.70
2023-03-03T11:09:01.965Z,6.81
2023-03-03T11:11:54.208Z,6.96
2023-03-03T11:14:47.844Z,7.08
2023-03-03T11:17:49.756Z,6.88
2023-03-03T11:20:38.600Z,6.64
2023-03-03T11:23:40.753Z,6.73
2023-03-03T11:26:33.371Z,6.86
2023-03-03T11:29:28.828Z,7.35
2023-03-03T11:32:27.256Z,7.52
2023-03-03T11:35:29.144Z,7.55
2023-03-03T11:38:31.478Z,7.56
2023-03-03T11:41:23.358Z,7.66
2023-03-03T11:44:00.566Z,7.69
2023-03-03T11:46:42.614Z,7.73
2023-03-03T11:49:25.063Z,7.92
2023-03-03T11:52:24.139Z,8.06
2023-03-03T11:55:07.767Z,8.06
2023-03-03T11:57:45.534Z,8.04
2023-03-03T12:00:31.854Z,8.14
2023-03-03T12:03:47.797Z,8.24
2023-03-03T12:06:24.893Z,8.19
2023-03-03T12:09:12.838Z,7.95
2023-03-03T12:12:00.794Z,7.92
2023-03-03T12:14:50.698Z,8.12
2023-03-03T12:17:36.886Z,8.46
2023-03-03T12:20:13.425Z,8.83
2023-03-03T12:23:06.898Z,9.15
2023-03-03T12:25:46.131Z,9.23
2023-03-03T12:28:27.600Z,9.50
2023-03-03T12:31:22.760Z,9.80
2023-03-03T12:34:17.281Z,9.83
2023-03-03T12:37:31.709Z,9.66
2023-03-03T12:40:08.726Z,9.72
2023-03-03T12:42:58.763Z,9.74
2023-03-03T12:45:50.777Z,9.54
2023-03-03T12:48:27.929Z,9.30
2023-03-03T12:51:14.458Z,9.40
2023-03-03T12:54:12.792Z,9.30
2023-03-03T12:56:57.770Z,9.14
2023-03-03T12:59:51.822Z,9.06
2023-03-03T13:02:46.823Z,8.94
2023-03-03T13:05:59.873Z,8.95
2023-03-03T13:08:40.078Z,8.98
2023-03-03T13:11:29.605Z,8.90
2023-03-03T13:14:31.573Z,8.84
2023-03-03T13:17:19.627Z,8.80
2023-03-03T13:20:04.688Z,8.57
2023-03-03T13:22:50.960Z,8.64
2023-03-03T13:25:53.665Z,8.73
2023-03-03T13:28:40.457Z,8.78
2023-03-03T13:31:21.727Z,8.78
2023-03-03T13:33:56.327Z,8.65
2023-03-03T13:36:55.970Z,8.53
2023-03-03T13:39:35.003Z,8.40
2023-03-03T13:42:29.730Z,8.63
2023-03-03T13:45:03.042Z,8.61
2023-03-03T13:47:37.381Z,8.57
2023-03-03T13:50:30.291Z,8.57
2023-03-03T13:53:20.078Z,8.48
2023-03-03T13:56:33.511Z,8.41
2023-03-03T13:59:42.343Z,8.34
2023-03-03T14:02:47.959Z,8.32
2023-03-03T14:05:28.387Z,8.45
2023-03-03T14:08:07.809Z,8.48
2023-03-03T14:11:02.473Z,8.47
2023-03-03T14:13:55.115Z,8.48
2023-03-03T14:16:51.350Z,8.26
2023-03-03T14:19:34.463Z,8.19
2023-03-03T14:22:23.935Z,8.23
2023-03-03T14:25:12.365Z,8.23
2023-03-03T14:27:46.707Z,8.22
2023-03-03T14:30:36.526Z,8.20
2023-03-03T14:33:07.907Z,8.13
2023-03-03T14:35:42.437Z,8.09
2023-03-03T14:38:23.625Z,8.05
2023-03-03T14:41:18.021Z,8.01
2023-03-03T14:44:22.872Z,7.59
2023-03-03T14:47:10.253Z,7.87
2023-03-03T14:49:41.762Z,7.81
2023-03-03T14:52:15.821Z,7.93
2023-03-03T14:54:56.077Z,7.71
2023-03-03T14:57:46.057Z,7.83
2023-03-03T15:00:23.114Z,7.81
2023-03-03T15:03:27.150Z,7.81
2023-03-03T15:05:58.631Z,7.80
2023-03-03T15:08:36.031Z,7.76
2023-03-03T15:11:27.141Z,7.66
2023-03-03T15:14:14.756Z,7.67
2023-03-03T15:16:46.596Z,7.57
2023-03-03T15:19:37.922Z,7.49
2023-03-03T15:22:18.863Z,7.53
2023-03-03T15:25:00.197Z,7.54
2023-03-03T15:28:06.057Z,7.61
2023-03-03T15:30:47.060Z,7.62
2023-03-03T15:33:34.506Z,7.50
2023-03-03T15:36:21.170Z,7.74
2023-03-03T15:39:01.675Z,7.79
2023-03-03T15:41:47.724Z,7.80
2023-03-03T15:44:37.177Z,7.67
2023-03-03T15:47:21.394Z,7.62
2023-03-03T15:50:11.610Z,7.51
2023-03-03T15:52:56.262Z,7.46
2023-03-03T15:55:55.449Z,7.38
2023-03-03T15:59:07.739Z,7.34
2023-03-03T16:02:11.883Z,7.24
2023-03-03T16:04:54.778Z,7.15
2023-03-03T16:07:37.197Z,7.08
2023-03-03T16:10:22.376Z,6.97
2023-03-03T16:13:21.794Z,6.92
2023-03-03T16:16:02.367Z,6.83
2023-03-03T16:19:14.918Z,6.69
2023-03-03T16:22:17.227Z,6.70
2023-03-03T16:25:09.742Z,6.61
2023-03-03T16:27:53.739Z,6.54
2023-03-03T16:30:37.499Z,6.58
2023-03-03T16:33:19.490Z,6.51
2023-03-03T16:36:12.735Z,6.33
2023-03-03T16:38:53.049Z,6.43
2023-03-03T16:41:52.914Z,6.44
2023-03-03T16:44:38.747Z,6.34
2023-03-03T16:47:26.822Z,6.39
2023-03-03T16:50:17.800Z,6.42
2023-03-03T16:52:56.778Z,6.42
2023-03-03T16:55:48.435Z,6.35
2023-03-03T16:58:33.818Z,6.38
2023-03-03T17:01:31.331Z,6.39
2023-03-03T17:04:30.109Z,6.08
2023-03-03T17:07:23.071Z,6.34
2023-03-03T17:10:20.675Z,6.33
2023-03-03T17:13:15.810Z,6.28
2023-03-03T17:16:02.957Z,6.35
2023-03-03T17:18:50.141Z,6.34
2023-03-03T17:21:30.873Z,6.31
2023-03-03T17:24:21.094Z,6.27
2023-03-03T17:27:15.027Z,6.16
2023-03-03T17:29:54.988Z,6.24
2023-03-03T17:32:57.973Z,6.18
2023-03-03T17:35:54.116Z,6.21
2023-03-03T17:38:34.727Z,5.92
2023-03-03T17:41:14.873Z,6.02
2023-03-03T17:43:53.202Z,6.08
2023-03-03T17:46:39.060Z,6.11
2023-03-03T17:49:34.782Z,6.12
2023-03-03T17:52:08.985Z,6.13
2023-03-03T17:54:54.176Z,6.05
2023-03-03T17:57:45.409Z,6.10
2023-03-03T18:00:37.748Z,6.09
2023-03-03T18:03:34.427Z,6.02
2023-03-03T18:06:32.559Z,6.05
2023-03-03T18:09:15.615Z,6.00
2023-03-03T18:12:12.123Z,5.92
2023-03-03T18:15:11.515Z,5.85
2023-03-03T18:17:46.283Z,5.80
2023-03-03T18:20:34.597Z,5.76
2023-03-03T18:23:28.117Z,5.75
2023-03-03T18:26:08.077Z,5.74
2023-03-03T18:29:06.672Z,5.76
2023-03-03T18:31:57.751Z,5.78
2023-03-03T18:34:37.161Z,5.80
2023-03-03T18:37:31.466Z,5.81
2023-03-03T18:40:02.692Z,5.83
2023-03-03T18:42:40.204Z,5.73
2023-03-03T18:45:17.592Z,5.83
2023-03-03T18:48:01.096Z,5.79
2023-03-03T18:50:35.042Z,5.76
2023-03-03T18:53:19.786Z,5.77
2023-03-03T18:55:59.302Z,5.77
2023-03-03T18:58:38.328Z,5.68
2023-03-03T19:01:31.602Z,5.78
2023-03-03T19:04:16.275Z,5.77
2023-03-03T19:06:47.511Z,5.73
2023-03-03T19:09:40.187Z,5.56
2023-03-03T19:12:13.557Z,5.53
2023-03-03T19:14:47.476Z,5.61
2023-03-03T19:17:18.698Z,5.58
2023-03-03T19:20:12.294Z,5.44
2023-03-03T19:23:05.279Z,5.50
2023-03-03T19:25:37.894Z,5.45
2023-03-03T19:28:15.086Z,5.41
2023-03-03T19:31:17.117Z,5.41
2023-03-03T19:34:07.388Z,5.41
2023-03-03T19:37:15.865Z,5.40
2023-03-03T19:39:57.819Z,5.34
2023-03-03T19:43:00.870Z,5.31
2023-03-03T19:45:49.151Z,5.24
2023-03-03T19:48:20.392Z,5.30
2023-03-03T19:51:10.245Z,5.32
2023-03-03T19:53:58.766Z,5.22
2023-03-03T19:56:47.203Z,5.13
2023-03-03T19:59:40.478Z,4.97
2023-03-03T20:02:28.401Z,4.80
2023-03-03T20:05:24.838Z,4.85
2023-03-03T20:08:24.621Z,4.80
2023-03-03T20:11:17.307Z,4.76
2023-03-03T20:14:00.992Z,4.79
2023-03-03T20:16:42.697Z,4.85
2023-03-03T20:19:28.727Z,4.86
2023-03-03T20:22:34.913Z,4.79
2023-03-03T20:25:21.507Z,4.87
2023-03-03T20:28:21.452Z,4.84
2023-03-03T20:31:14.701Z,4.74
2023-03-03T20:34:07.862Z,4.74
2023-03-03T20:37:02.161Z,4.75
2023-03-03T20:40:02.195Z,4.78
2023-03-03T20:42:49.867Z,4.82
2023-03-03T20:46:10.483Z,4.90
2023-03-03T20:49:19.157Z,4.95
2023-03-03T20:52:30.112Z,4.92
2023-03-03T20:55:27.802Z,5.02
2023-03-03T20:58:20.819Z,5.05
2023-03-03T21:01:10.401Z,5.11
2023-03-03T21:03:44.769Z,5.13
2023-03-03T21:06:19.494Z,5.17
2023-03-03T21:08:56.063Z,5.16
2023-03-03T21:11:30.394Z,5.17
2023-03-03T21:14:16.621Z,5.17
2023-03-03T21:16:50.241Z,5.16
2023-03-03T21:19:31.634Z,5.19
2023-03-03T21:22:03.423Z,5.22
2023-03-03T21:24:50.080Z,5.26
2023-03-03T21:27:31.344Z,5.26
2023-03-03T21:30:07.841Z,5.30
2023-03-03T21:32:47.866Z,5.32
2023-03-03T21:35:21.648Z,5.34
2023-03-03T21:37:57.465Z,5.36
2023-03-03T21:40:30.185Z,5.35
2023-03-03T21:43:01.482Z,5.43
2023-03-03T21:45:32.809Z,5.45
2023-03-03T21:48:04.546Z,5.41
2023-03-03T21:50:36.052Z,5.47
2023-03-03T21:53:07.312Z,5.44
2023-03-03T21:55:38.574Z,5.47
2023-03-03T21:58:09.880Z,5.49
2023-03-03T22:00:42.803Z,5.49
2023-03-03T22:03:15.562Z,5.49
2023-03-03T22:05:48.914Z,5.50
2023-03-03T22:08:23.245Z,5.39
2023-03-03T22:10:56.094Z,5.40
2023-03-03T22:13:27.671Z,5.48
2023-03-03T22:15:59.168Z,5.37
2023-03-03T22:18:30.482Z,5.46
2023-03-03T22:21:01.838Z,5.44
2023-03-03T22:23:33.252Z,5.45
2023-03-03T22:26:04.654Z,5.33
2023-03-03T22:28:35.938Z,5.46
2023-03-03T22:31:07.492Z,5.46
2023-03-03T22:33:38.856Z,5.46
2023-03-03T22:36:10.596Z,5.38
2023-03-03T22:38:42.330Z,5.48
2023-03-03T22:41:14.395Z,5.39
2023-03-03T22:43:47.799Z,5.49
2023-03-03T22:46:19.072Z,5.39
2023-03-03T22:48:50.506Z,5.37
2023-03-03T22:51:22.088Z,5.49
2023-03-03T22:53:53.367Z,5.50
2023-03-03T22:56:24.797Z,5.51
2023-03-03T22:58:56.132Z,5.52
2023-03-03T23:01:27.612Z,5.53
2023-03-03T23:03:58.888Z,5.52
2023-03-03T23:06:30.155Z,5.50
2023-03-03T23:09:01.468Z,5.47
2023-03-03T23:11:32.741Z,5.56
2023-03-03T23:14:04.065Z,5.58
2023-03-03T23:16:35.326Z,5.57
2023-03-03T23:19:06.652Z,5.58
2023-03-03T23:21:38.032Z,5.60
2023-03-03T23:24:11.023Z,5.47
2023-03-03T23:26:42.324Z,5.61
2023-03-03T23:29:13.671Z,5.59
2023-03-03T23:31:45.170Z,5.64
2023-03-03T23:34:16.506Z,5.63
2023-03-03T23:36:47.990Z,5.64
2023-03-03T23:39:19.312Z,5.48
2023-03-03T23:41:50.600Z,5.67
2023-03-03T23:44:21.933Z,5.67
2023-03-03T23:46:53.233Z,5.68
2023-03-03T23:49:24.944Z,5.53
2023-03-03T23:51:56.229Z,5.62
2023-03-03T23:54:27.845Z,5.57
2023-03-03T23:56:59.165Z,5.66
2023-03-03T23:59:30.465Z,5.71
